Sejita, Texas
Current Conditions -  °F | °C
As of 7:55 AM on Wednesday 28 Jan 2015 (Local Time) from KHBV Reporting Station
Clear Clear  
Wind Chill: 51°   Ceiling: Unl
Heat Index: 51°   Visibility: 10mi
Dew Point: 38°   Wind: 3mph
Humidity: 60%   Direction: 210°SSW
Pressure: 30.16"   Gusts: NA
Location:  27.5098°N, 98.639°W
Report Text: KHBV 281355Z AUTO 21003KT 10SM CLR 11/03 A3016 RMK AO2 T01080032
Loading
Personal Weather Stations






























Interactive Weather Map New forecast layout! Learn more

10-Day Weather Forecast

Advertisements
Track Severe Weather on mobile